sensor_id;sensor_type;location;lat;lon;timestamp;pressure;altitude;pressure_sealevel;temperature;humidity
6528;BME280;64597;42.664;23.256;2023-04-16T00:02:18;94058.22;;;11.28;47.64
6528;BME280;64597;42.664;23.256;2023-04-16T00:04:51;94057.31;;;11.18;47.84
6528;BME280;64597;42.664;23.256;2023-04-16T00:07:19;94046.38;;;11.04;47.45
6528;BME280;64597;42.664;23.256;2023-04-16T00:09:50;94058.81;;;11.09;47.55
6528;BME280;64597;42.664;23.256;2023-04-16T00:12:19;94058.00;;;11.08;46.94
6528;BME280;64597;42.664;23.256;2023-04-16T00:14:52;94049.78;;;11.00;47.33
6528;BME280;64597;42.664;23.256;2023-04-16T00:17:21;94060.31;;;11.00;47.77
6528;BME280;64597;42.664;23.256;2023-04-16T00:19:49;94044.69;;;10.93;47.40
6528;BME280;64597;42.664;23.256;2023-04-16T00:22:21;94056.06;;;10.99;47.31
6528;BME280;64597;42.664;23.256;2023-04-16T00:24:52;94051.34;;;11.01;47.38
6528;BME280;64597;42.664;23.256;2023-04-16T00:27:18;94039.16;;;10.95;47.59
6528;BME280;64597;42.664;23.256;2023-04-16T00:29:51;94031.44;;;10.88;47.95
6528;BME280;64597;42.664;23.256;2023-04-16T00:32:24;94040.19;;;10.94;47.38
6528;BME280;64597;42.664;23.256;2023-04-16T00:34:53;94047.13;;;11.00;47.19
6528;BME280;64597;42.664;23.256;2023-04-16T00:37:22;94047.72;;;11.07;46.92
6528;BME280;64597;42.664;23.256;2023-04-16T00:39:51;94039.22;;;11.00;46.73
6528;BME280;64597;42.664;23.256;2023-04-16T00:42:19;94041.78;;;10.95;46.89
6528;BME280;64597;42.664;23.256;2023-04-16T00:44:47;94039.59;;;10.87;47.09
6528;BME280;64597;42.664;23.256;2023-04-16T00:47:19;94047.56;;;10.92;46.51
6528;BME280;64597;42.664;23.256;2023-04-16T00:49:54;94040.19;;;10.94;46.76
6528;BME280;64597;42.664;23.256;2023-04-16T00:52:27;94043.88;;;10.93;46.84
6528;BME280;64597;42.664;23.256;2023-04-16T00:55:01;94044.69;;;10.93;46.74
6528;BME280;64597;42.664;23.256;2023-04-16T00:57:35;94048.91;;;10.94;47.22
6528;BME280;64597;42.664;23.256;2023-04-16T01:00:02;94033.81;;;10.90;47.27
6528;BME280;64597;42.664;23.256;2023-04-16T01:02:32;94038.50;;;10.83;47.18
6528;BME280;64597;42.664;23.256;2023-04-16T01:05:02;94026.31;;;10.76;47.02
6528;BME280;64597;42.664;23.256;2023-04-16T01:07:31;94037.97;;;10.81;48.01
6528;BME280;64597;42.664;23.256;2023-04-16T01:10:00;94035.50;;;10.74;48.55
6528;BME280;64597;42.664;23.256;2023-04-16T01:12:30;94041.66;;;10.58;49.16
6528;BME280;64597;42.664;23.256;2023-04-16T01:15:03;94039.50;;;10.55;49.92
6528;BME280;64597;42.664;23.256;2023-04-16T01:17:30;94042.25;;;10.38;50.45
6528;BME280;64597;42.664;23.256;2023-04-16T01:20:02;94037.94;;;10.32;50.50
6528;BME280;64597;42.664;23.256;2023-04-16T01:22:33;94037.16;;;10.32;50.89
6528;BME280;64597;42.664;23.256;2023-04-16T01:25:05;94041.53;;;10.26;51.39
6528;BME280;64597;42.664;23.256;2023-04-16T01:27:32;94047.22;;;10.18;51.05
6528;BME280;64597;42.664;23.256;2023-04-16T01:30:00;94024.34;;;10.02;50.67
6528;BME280;64597;42.664;23.256;2023-04-16T01:32:31;94037.44;;;10.14;50.27
6528;BME280;64597;42.664;23.256;2023-04-16T01:35:02;94027.94;;;9.96;51.78
6528;BME280;64597;42.664;23.256;2023-04-16T01:37:30;94028.44;;;9.93;52.66
6528;BME280;64597;42.664;23.256;2023-04-16T01:40:04;94029.66;;;9.85;52.26
6528;BME280;64597;42.664;23.256;2023-04-16T01:42:31;94020.00;;;9.91;52.08
6528;BME280;64597;42.664;23.256;2023-04-16T01:44:57;94026.22;;;10.02;52.43
6528;BME280;64597;42.664;23.256;2023-04-16T01:47:26;94019.63;;;10.04;52.62
6528;BME280;64597;42.664;23.256;2023-04-16T01:49:58;94021.59;;;9.92;52.67
6528;BME280;64597;42.664;23.256;2023-04-16T01:52:36;94022.50;;;9.81;52.55
6528;BME280;64597;42.664;23.256;2023-04-16T01:55:05;94005.69;;;9.65;53.73
6528;BME280;64597;42.664;23.256;2023-04-16T01:57:38;94014.47;;;9.71;53.03
6528;BME280;64597;42.664;23.256;2023-04-16T02:00:14;94010.09;;;9.60;53.25
6528;BME280;64597;42.664;23.256;2023-04-16T02:02:44;94015.25;;;9.71;53.16
6528;BME280;64597;42.664;23.256;2023-04-16T02:05:14;94012.47;;;9.61;53.72
6528;BME280;64597;42.664;23.256;2023-04-16T02:07:41;94010.34;;;9.58;53.67
6528;BME280;64597;42.664;23.256;2023-04-16T02:10:16;94009.94;;;9.50;54.19
6528;BME280;64597;42.664;23.256;2023-04-16T02:12:46;94005.63;;;9.44;54.12
6528;BME280;64597;42.664;23.256;2023-04-16T02:15:16;94019.75;;;9.54;53.49
6528;BME280;64597;42.664;23.256;2023-04-16T02:17:45;94016.38;;;9.59;54.19
6528;BME280;64597;42.664;23.256;2023-04-16T02:20:13;94020.34;;;9.61;54.71
6528;BME280;64597;42.664;23.256;2023-04-16T02:22:41;94021.56;;;9.54;54.88
6528;BME280;64597;42.664;23.256;2023-04-16T02:25:10;94014.69;;;9.53;55.06
6528;BME280;64597;42.664;23.256;2023-04-16T02:27:49;94015.09;;;9.45;55.41
6528;BME280;64597;42.664;23.256;2023-04-16T02:30:17;94018.84;;;9.49;55.49
6528;BME280;64597;42.664;23.256;2023-04-16T02:32:45;94017.03;;;9.49;55.17
6528;BME280;64597;42.664;23.256;2023-04-16T02:35:14;94011.59;;;9.56;55.50
6528;BME280;64597;42.664;23.256;2023-04-16T02:37:41;94006.09;;;9.57;54.90
6528;BME280;64597;42.664;23.256;2023-04-16T02:40:14;94008.00;;;9.62;55.47
6528;BME280;64597;42.664;23.256;2023-04-16T02:42:45;94002.03;;;9.66;53.96
6528;BME280;64597;42.664;23.256;2023-04-16T02:45:15;94001.06;;;9.72;54.28
6528;BME280;64597;42.664;23.256;2023-04-16T02:47:45;93997.63;;;9.72;54.69
6528;BME280;64597;42.664;23.256;2023-04-16T02:50:17;93997.06;;;9.70;54.01
6528;BME280;64597;42.664;23.256;2023-04-16T02:52:46;94008.41;;;9.70;54.33
6528;BME280;64597;42.664;23.256;2023-04-16T02:55:16;94003.94;;;9.71;53.63
6528;BME280;64597;42.664;23.256;2023-04-16T02:57:51;94007.13;;;9.73;53.17
6528;BME280;64597;42.664;23.256;2023-04-16T03:00:22;93995.47;;;9.69;54.01
6528;BME280;64597;42.664;23.256;2023-04-16T03:02:51;94006.78;;;9.69;53.34
6528;BME280;64597;42.664;23.256;2023-04-16T03:05:21;93998.97;;;9.74;53.40
6528;BME280;64597;42.664;23.256;2023-04-16T03:07:51;94000.25;;;9.72;53.78
6528;BME280;64597;42.664;23.256;2023-04-16T03:10:25;93992.66;;;9.75;52.91
6528;BME280;64597;42.664;23.256;2023-04-16T03:12:55;93997.44;;;9.78;53.12
6528;BME280;64597;42.664;23.256;2023-04-16T03:15:32;94004.53;;;9.78;52.81
6528;BME280;64597;42.664;23.256;2023-04-16T03:18:04;94004.53;;;9.78;53.29
6528;BME280;64597;42.664;23.256;2023-04-16T03:20:32;94004.25;;;9.74;53.29
6528;BME280;64597;42.664;23.256;2023-04-16T03:22:59;94009.75;;;9.73;53.45
6528;BME280;64597;42.664;23.256;2023-04-16T03:25:27;94003.28;;;9.80;53.24
6528;BME280;64597;42.664;23.256;2023-04-16T03:28:00;94005.09;;;9.80;53.47
6528;BME280;64597;42.664;23.256;2023-04-16T03:30:33;94004.06;;;9.81;52.78
6528;BME280;64597;42.664;23.256;2023-04-16T03:33:00;94003.00;;;9.82;52.80
6528;BME280;64597;42.664;23.256;2023-04-16T03:35:34;94006.75;;;9.86;52.48
6528;BME280;64597;42.664;23.256;2023-04-16T03:38:04;94015.50;;;9.91;52.60
6528;BME280;64597;42.664;23.256;2023-04-16T03:40:34;94011.84;;;9.92;52.54
6528;BME280;64597;42.664;23.256;2023-04-16T03:43:03;94019.50;;;9.94;52.81
6528;BME280;64597;42.664;23.256;2023-04-16T03:45:31;93998.81;;;9.81;53.03
6528;BME280;64597;42.664;23.256;2023-04-16T03:47:57;94017.38;;;9.91;52.28
6528;BME280;64597;42.664;23.256;2023-04-16T03:50:26;94020.00;;;9.91;52.07
6528;BME280;64597;42.664;23.256;2023-04-16T03:52:59;93997.75;;;9.82;52.65
6528;BME280;64597;42.664;23.256;2023-04-16T03:55:33;94021.72;;;10.02;52.43
6528;BME280;64597;42.664;23.256;2023-04-16T03:58:03;94020.59;;;9.98;52.31
6528;BME280;64597;42.664;23.256;2023-04-16T04:00:32;94013.38;;;9.88;52.98
6528;BME280;64597;42.664;23.256;2023-04-16T04:03:01;94011.47;;;9.84;53.28
6528;BME280;64597;42.664;23.256;2023-04-16T04:05:34;94023.09;;;9.88;53.45
6528;BME280;64597;42.664;23.256;2023-04-16T04:08:02;94020.00;;;9.91;54.06
6528;BME280;64597;42.664;23.256;2023-04-16T04:10:32;94026.03;;;9.91;54.83
6528;BME280;64597;42.664;23.256;2023-04-16T04:13:04;94026.72;;;9.82;55.24
6528;BME280;64597;42.664;23.256;2023-04-16T04:15:34;94031.41;;;9.80;55.31
6528;BME280;64597;42.664;23.256;2023-04-16T04:18:02;94032.78;;;9.82;55.92
6528;BME280;64597;42.664;23.256;2023-04-16T04:20:31;94038.09;;;9.87;55.36
6528;BME280;64597;42.664;23.256;2023-04-16T04:23:01;94034.13;;;9.85;55.51
6528;BME280;64597;42.664;23.256;2023-04-16T04:25:32;94042.91;;;9.90;55.96
6528;BME280;64597;42.664;23.256;2023-04-16T04:27:58;94047.09;;;9.91;55.99
6528;BME280;64597;42.664;23.256;2023-04-16T04:30:25;94048.97;;;9.91;55.95
6528;BME280;64597;42.664;23.256;2023-04-16T04:32:56;94040.94;;;9.81;55.51
6528;BME280;64597;42.664;23.256;2023-04-16T04:35:24;94054.22;;;9.91;54.51
6528;BME280;64597;42.664;23.256;2023-04-16T04:37:59;94053.97;;;9.92;54.93
6528;BME280;64597;42.664;23.256;2023-04-16T04:40:31;94051.09;;;9.94;55.67
6528;BME280;64597;42.664;23.256;2023-04-16T04:42:58;94053.81;;;9.99;54.95
6528;BME280;64597;42.664;23.256;2023-04-16T04:45:29;94063.28;;;10.00;55.09
6528;BME280;64597;42.664;23.256;2023-04-16T04:48:01;94054.63;;;10.00;55.39
6528;BME280;64597;42.664;23.256;2023-04-16T04:50:33;94063.38;;;10.05;54.88
6528;BME280;64597;42.664;23.256;2023-04-16T04:53:01;94052.84;;;10.05;54.61
6528;BME280;64597;42.664;23.256;2023-04-16T04:55:39;94051.31;;;10.09;54.74
6528;BME280;64597;42.664;23.256;2023-04-16T04:58:12;94053.25;;;10.14;53.99
6528;BME280;64597;42.664;23.256;2023-04-16T05:00:45;94052.50;;;10.18;53.78
6528;BME280;64597;42.664;23.256;2023-04-16T05:03:18;94047.31;;;10.23;53.83
6528;BME280;64597;42.664;23.256;2023-04-16T05:05:44;94050.25;;;10.27;53.00
6528;BME280;64597;42.664;23.256;2023-04-16T05:08:15;94047.34;;;10.28;53.21
6528;BME280;64597;42.664;23.256;2023-04-16T05:10:44;94059.03;;;10.32;53.19
6528;BME280;64597;42.664;23.256;2023-04-16T05:13:16;94058.53;;;10.35;53.91
6528;BME280;64597;42.664;23.256;2023-04-16T05:15:45;94034.78;;;10.30;54.05
6528;BME280;64597;42.664;23.256;2023-04-16T05:18:21;94062.69;;;10.53;54.41
6528;BME280;64597;42.664;23.256;2023-04-16T05:20:53;94047.75;;;10.58;53.97
6528;BME280;64597;42.664;23.256;2023-04-16T05:23:23;94063.56;;;10.58;53.65
6528;BME280;64597;42.664;23.256;2023-04-16T05:25:54;94053.59;;;10.65;54.18
6528;BME280;64597;42.664;23.256;2023-04-16T05:28:22;94044.84;;;10.60;54.21
6528;BME280;64597;42.664;23.256;2023-04-16T05:30:53;94059.00;;;10.75;53.92
6528;BME280;64597;42.664;23.256;2023-04-16T05:33:21;94039.50;;;10.76;53.18
6528;BME280;64597;42.664;23.256;2023-04-16T05:35:50;94047.22;;;10.83;53.60
6528;BME280;64597;42.664;23.256;2023-04-16T05:38:20;94048.53;;;10.86;52.86
6528;BME280;64597;42.664;23.256;2023-04-16T05:40:51;94038.06;;;10.91;52.69
6528;BME280;64597;42.664;23.256;2023-04-16T05:43:20;94045.78;;;10.97;52.99
6528;BME280;64597;42.664;23.256;2023-04-16T05:45:51;94041.78;;;10.95;52.35
6528;BME280;64597;42.664;23.256;2023-04-16T05:48:20;94043.94;;;10.98;52.16
6528;BME280;64597;42.664;23.256;2023-04-16T05:50:52;94053.00;;;11.07;52.13
6528;BME280;64597;42.664;23.256;2023-04-16T05:53:20;94053.53;;;11.09;51.57
6528;BME280;64597;42.664;23.256;2023-04-16T05:55:54;94050.97;;;11.14;51.44
6528;BME280;64597;42.664;23.256;2023-04-16T05:58:23;94055.72;;;11.17;51.97
6528;BME280;64597;42.664;23.256;2023-04-16T06:00:53;94052.13;;;11.28;51.43
6528;BME280;64597;42.664;23.256;2023-04-16T06:03:20;94046.34;;;11.31;51.46
6528;BME280;64597;42.664;23.256;2023-04-16T06:05:53;94053.25;;;11.37;51.13
6528;BME280;64597;42.664;23.256;2023-04-16T06:08:21;94045.66;;;11.40;51.25
6528;BME280;64597;42.664;23.256;2023-04-16T06:10:52;94041.78;;;11.53;51.24
6528;BME280;64597;42.664;23.256;2023-04-16T06:13:20;94046.91;;;11.65;50.28
6528;BME280;64597;42.664;23.256;2023-04-16T06:15:50;94048.88;;;11.79;50.12
6528;BME280;64597;42.664;23.256;2023-04-16T06:18:18;94031.44;;;11.78;49.81
6528;BME280;64597;42.664;23.256;2023-04-16T06:20:50;94044.75;;;11.98;49.47
6528;BME280;64597;42.664;23.256;2023-04-16T06:23:23;94055.88;;;12.00;49.73
6528;BME280;64597;42.664;23.256;2023-04-16T06:25:53;94051.72;;;12.09;49.56
6528;BME280;64597;42.664;23.256;2023-04-16T06:28:22;94054.91;;;12.16;49.22
6528;BME280;64597;42.664;23.256;2023-04-16T06:30:53;94039.91;;;12.27;49.23
6528;BME280;64597;42.664;23.256;2023-04-16T06:33:20;94034.38;;;12.28;48.71
6528;BME280;64597;42.664;23.256;2023-04-16T06:35:50;94044.50;;;12.47;48.37
6528;BME280;64597;42.664;23.256;2023-04-16T06:38:21;94036.06;;;12.55;48.17
6528;BME280;64597;42.664;23.256;2023-04-16T06:40:53;94033.19;;;12.66;48.36
6528;BME280;64597;42.664;23.256;2023-04-16T06:43:20;94039.84;;;12.79;48.22
6528;BME280;64597;42.664;23.256;2023-04-16T06:45:50;94046.22;;;12.93;47.02
6528;BME280;64597;42.664;23.256;2023-04-16T06:48:21;94046.25;;;12.98;46.78
6528;BME280;64597;42.664;23.256;2023-04-16T06:50:53;94039.44;;;13.27;46.01
6528;BME280;64597;42.664;23.256;2023-04-16T06:53:26;94042.38;;;13.51;46.08
6528;BME280;64597;42.664;23.256;2023-04-16T06:55:57;94029.41;;;13.54;45.77
6528;BME280;64597;42.664;23.256;2023-04-16T06:58:26;94029.41;;;13.54;45.84
6528;BME280;64597;42.664;23.256;2023-04-16T07:00:56;94029.94;;;13.61;45.91
6528;BME280;64597;42.664;23.256;2023-04-16T07:03:29;94024.63;;;13.66;45.50
6528;BME280;64597;42.664;23.256;2023-04-16T07:05:59;94027.00;;;13.83;45.24
6528;BME280;64597;42.664;23.256;2023-04-16T07:08:32;94040.25;;;13.88;45.25
6528;BME280;64597;42.664;23.256;2023-04-16T07:10:59;94024.59;;;13.91;44.95
6528;BME280;64597;42.664;23.256;2023-04-16T07:13:30;94034.63;;;14.25;45.54
6528;BME280;64597;42.664;23.256;2023-04-16T07:16:05;94036.19;;;14.41;44.24
6528;BME280;64597;42.664;23.256;2023-04-16T07:18:40;94039.84;;;14.55;44.27
6528;BME280;64597;42.664;23.256;2023-04-16T07:21:07;94038.44;;;14.77;44.21
6528;BME280;64597;42.664;23.256;2023-04-16T07:23:34;94033.56;;;14.95;43.77
6528;BME280;64597;42.664;23.256;2023-04-16T07:26:04;94034.53;;;15.09;43.43
6528;BME280;64597;42.664;23.256;2023-04-16T07:28:35;94034.75;;;15.17;42.57
6528;BME280;64597;42.664;23.256;2023-04-16T07:31:05;94028.38;;;15.18;42.25
6528;BME280;64597;42.664;23.256;2023-04-16T07:33:33;94033.31;;;15.35;42.64
6528;BME280;64597;42.664;23.256;2023-04-16T07:36:03;94031.34;;;15.55;41.52
6528;BME280;64597;42.664;23.256;2023-04-16T07:38:38;94036.13;;;15.87;41.26
6528;BME280;64597;42.664;23.256;2023-04-16T07:41:08;94043.31;;;16.15;40.92
6528;BME280;64597;42.664;23.256;2023-04-16T07:43:39;94030.53;;;16.41;40.18
6528;BME280;64597;42.664;23.256;2023-04-16T07:46:07;94037.31;;;16.57;39.80
6528;BME280;64597;42.664;23.256;2023-04-16T07:48:40;94031.34;;;16.65;39.69
6528;BME280;64597;42.664;23.256;2023-04-16T07:51:06;94026.91;;;16.79;38.62
6528;BME280;64597;42.664;23.256;2023-04-16T07:53:33;94018.88;;;16.84;38.71
6528;BME280;64597;42.664;23.256;2023-04-16T07:56:05;94029.69;;;17.11;38.47
6528;BME280;64597;42.664;23.256;2023-04-16T07:58:32;94021.13;;;17.33;38.11
6528;BME280;64597;42.664;23.256;2023-04-16T08:00:59;94016.75;;;17.61;38.13
6528;BME280;64597;42.664;23.256;2023-04-16T08:03:29;94008.59;;;18.03;36.94
6528;BME280;64597;42.664;23.256;2023-04-16T08:05:58;94008.25;;;18.50;36.27
6528;BME280;64597;42.664;23.256;2023-04-16T08:08:27;94018.50;;;19.11;34.88
6528;BME280;64597;42.664;23.256;2023-04-16T08:10:57;94014.88;;;19.43;33.95
6528;BME280;64597;42.664;23.256;2023-04-16T08:13:30;93999.28;;;19.81;32.64
6528;BME280;64597;42.664;23.256;2023-04-16T08:15:59;94003.91;;;19.89;32.61
6528;BME280;64597;42.664;23.256;2023-04-16T08:18:29;94009.16;;;20.24;32.47
6528;BME280;64597;42.664;23.256;2023-04-16T08:20:59;94016.44;;;20.32;32.25
6528;BME280;64597;42.664;23.256;2023-04-16T08:23:32;94015.84;;;20.35;32.29
6528;BME280;64597;42.664;23.256;2023-04-16T08:26:03;94015.81;;;20.05;32.09
6528;BME280;64597;42.664;23.256;2023-04-16T08:28:35;94014.66;;;19.75;32.51
6528;BME280;64597;42.664;23.256;2023-04-16T08:31:03;94015.06;;;19.46;32.21
6528;BME280;64597;42.664;23.256;2023-04-16T08:33:33;94012.69;;;19.45;32.81
6528;BME280;64597;42.664;23.256;2023-04-16T08:36:00;93996.56;;;19.50;32.72
6528;BME280;64597;42.664;23.256;2023-04-16T08:38:29;94001.53;;;19.65;33.29
6528;BME280;64597;42.664;23.256;2023-04-16T08:40:58;93996.31;;;19.82;32.81
6528;BME280;64597;42.664;23.256;2023-04-16T08:43:36;93990.31;;;20.07;32.50
6528;BME280;64597;42.664;23.256;2023-04-16T08:46:06;93995.03;;;20.32;32.25
6528;BME280;64597;42.664;23.256;2023-04-16T08:48:34;93993.31;;;20.36;31.63
6528;BME280;64597;42.664;23.256;2023-04-16T08:51:09;93991.69;;;20.58;31.60
6528;BME280;64597;42.664;23.256;2023-04-16T08:53:52;93986.41;;;20.92;30.91
6528;BME280;64597;42.664;23.256;2023-04-16T08:56:22;93987.81;;;20.89;30.63
6528;BME280;64597;42.664;23.256;2023-04-16T08:58:56;93982.09;;;20.65;30.51
6528;BME280;64597;42.664;23.256;2023-04-16T09:01:27;93978.09;;;20.45;30.81
6528;BME280;64597;42.664;23.256;2023-04-16T09:03:56;93973.63;;;20.10;31.26
6528;BME280;64597;42.664;23.256;2023-04-16T09:06:24;93970.19;;;19.88;31.99
6528;BME280;64597;42.664;23.256;2023-04-16T09:08:59;93978.56;;;19.64;32.12
6528;BME280;64597;42.664;23.256;2023-04-16T09:11:29;93980.19;;;19.51;32.40
6528;BME280;64597;42.664;23.256;2023-04-16T09:14:02;93983.19;;;19.50;33.16
6528;BME280;64597;42.664;23.256;2023-04-16T09:16:36;93985.72;;;19.55;33.51
6528;BME280;64597;42.664;23.256;2023-04-16T09:19:05;93984.00;;;19.37;32.87
6528;BME280;64597;42.664;23.256;2023-04-16T09:21:36;93985.03;;;19.14;33.18
6528;BME280;64597;42.664;23.256;2023-04-16T09:24:06;93974.78;;;19.07;33.51
6528;BME280;64597;42.664;23.256;2023-04-16T09:26:37;93973.97;;;19.07;34.12
6528;BME280;64597;42.664;23.256;2023-04-16T09:29:05;93964.50;;;19.01;34.06
6528;BME280;64597;42.664;23.256;2023-04-16T09:31:39;93980.41;;;19.06;34.11
6528;BME280;64597;42.664;23.256;2023-04-16T09:34:08;93984.06;;;19.10;34.35
6528;BME280;64597;42.664;23.256;2023-04-16T09:36:42;93979.88;;;19.17;33.89
6528;BME280;64597;42.664;23.256;2023-04-16T09:39:20;93974.91;;;19.38;33.38
6528;BME280;64597;42.664;23.256;2023-04-16T09:41:53;93979.72;;;19.49;33.17
6528;BME280;64597;42.664;23.256;2023-04-16T09:44:34;93979.59;;;19.77;32.04
6528;BME280;64597;42.664;23.256;2023-04-16T09:47:07;93975.00;;;19.99;31.79
6528;BME280;64597;42.664;23.256;2023-04-16T09:49:43;93975.56;;;20.18;31.64
6528;BME280;64597;42.664;23.256;2023-04-16T09:52:20;93970.63;;;20.03;30.92
6528;BME280;64597;42.664;23.256;2023-04-16T09:54:56;93973.63;;;20.10;31.42
6528;BME280;64597;42.664;23.256;2023-04-16T09:57:25;93964.97;;;20.35;31.10
6528;BME280;64597;42.664;23.256;2023-04-16T09:59:53;93965.50;;;20.54;31.16
6528;BME280;64597;42.664;23.256;2023-04-16T10:02:26;93967.81;;;20.87;30.97
6528;BME280;64597;42.664;23.256;2023-04-16T10:04:55;93956.00;;;20.96;30.42
6528;BME280;64597;42.664;23.256;2023-04-16T10:07:30;93962.75;;;20.94;29.75
6528;BME280;64597;42.664;23.256;2023-04-16T10:10:01;93955.97;;;20.88;29.71
6528;BME280;64597;42.664;23.256;2023-04-16T10:12:32;93945.25;;;20.71;30.09
6528;BME280;64597;42.664;23.256;2023-04-16T10:15:01;93934.66;;;20.66;30.12
6528;BME280;64597;42.664;23.256;2023-04-16T10:17:32;93935.63;;;20.70;30.67
6528;BME280;64597;42.664;23.256;2023-04-16T10:20:06;93926.47;;;20.62;30.53
6528;BME280;64597;42.664;23.256;2023-04-16T10:22:38;93935.75;;;20.56;30.26
6528;BME280;64597;42.664;23.256;2023-04-16T10:25:08;93941.88;;;20.57;30.75
6528;BME280;64597;42.664;23.256;2023-04-16T10:27:40;93940.19;;;20.61;30.62
6528;BME280;64597;42.664;23.256;2023-04-16T10:30:11;93938.91;;;20.75;30.34
6528;BME280;64597;42.664;23.256;2023-04-16T10:32:41;93938.09;;;20.58;30.84
6528;BME280;64597;42.664;23.256;2023-04-16T10:35:10;93921.69;;;20.50;30.93
6528;BME280;64597;42.664;23.256;2023-04-16T10:37:51;93919.66;;;20.47;31.20
6528;BME280;64597;42.664;23.256;2023-04-16T10:40:25;93920.44;;;20.57;30.55
6528;BME280;64597;42.664;23.256;2023-04-16T10:43:01;93924.84;;;20.52;30.80
6528;BME280;64597;42.664;23.256;2023-04-16T10:45:31;93926.38;;;20.36;30.97
6528;BME280;64597;42.664;23.256;2023-04-16T10:48:05;93936.19;;;20.49;31.24
6528;BME280;64597;42.664;23.256;2023-04-16T10:50:42;93930.16;;;20.35;31.35
6528;BME280;64597;42.664;23.256;2023-04-16T10:53:26;93928.56;;;20.34;31.09
6528;BME280;64597;42.664;23.256;2023-04-16T10:56:01;93918.63;;;20.26;30.86
6528;BME280;64597;42.664;23.256;2023-04-16T10:58:44;93924.94;;;20.30;31.13
6528;BME280;64597;42.664;23.256;2023-04-16T11:01:17;93911.91;;;20.37;31.27
6528;BME280;64597;42.664;23.256;2023-04-16T11:03:48;93917.03;;;20.65;31.45
6528;BME280;64597;42.664;23.256;2023-04-16T11:06:20;93905.66;;;20.68;30.93
6528;BME280;64597;42.664;23.256;2023-04-16T11:08:52;93899.69;;;20.71;31.28
6528;BME280;64597;42.664;23.256;2023-04-16T11:11:24;93911.66;;;20.82;31.25
6528;BME280;64597;42.664;23.256;2023-04-16T11:13:54;93908.38;;;20.85;31.08
6528;BME280;64597;42.664;23.256;2023-04-16T11:16:26;93903.63;;;20.82;30.19
6528;BME280;64597;42.664;23.256;2023-04-16T11:18:55;93905.81;;;20.63;30.69
6528;BME280;64597;42.664;23.256;2023-04-16T11:21:26;93898.06;;;20.52;31.39
6528;BME280;64597;42.664;23.256;2023-04-16T11:23:53;93890.50;;;20.54;31.25
6528;BME280;64597;42.664;23.256;2023-04-16T11:26:27;93892.09;;;20.56;30.95
6528;BME280;64597;42.664;23.256;2023-04-16T11:28:56;93894.13;;;20.59;31.88
6528;BME280;64597;42.664;23.256;2023-04-16T11:31:29;93885.47;;;20.62;31.89
6528;BME280;64597;42.664;23.256;2023-04-16T11:34:00;93882.47;;;20.63;31.93
6528;BME280;64597;42.664;23.256;2023-04-16T11:36:45;93876.66;;;20.70;31.78
6528;BME280;64597;42.664;23.256;2023-04-16T11:39:14;93876.38;;;20.80;31.33
6528;BME280;64597;42.664;23.256;2023-04-16T11:41:52;93876.97;;;20.60;31.82
6528;BME280;64597;42.664;23.256;2023-04-16T11:44:25;93877.75;;;20.51;31.62
6528;BME280;64597;42.664;23.256;2023-04-16T11:46:57;93871.09;;;20.40;31.74
6528;BME280;64597;42.664;23.256;2023-04-16T11:49:36;93872.53;;;20.38;31.71
6528;BME280;64597;42.664;23.256;2023-04-16T11:52:12;93866.53;;;20.41;31.86
6528;BME280;64597;42.664;23.256;2023-04-16T11:54:50;93863.06;;;20.40;32.27
6528;BME280;64597;42.664;23.256;2023-04-16T11:57:29;93858.34;;;20.37;32.33
6528;BME280;64597;42.664;23.256;2023-04-16T11:59:57;93847.94;;;20.44;32.26
6528;BME280;64597;42.664;23.256;2023-04-16T12:02:43;93845.59;;;20.43;31.92
6528;BME280;64597;42.664;23.256;2023-04-16T12:05:31;93846.22;;;20.48;31.96
6528;BME280;64597;42.664;23.256;2023-04-16T12:08:00;93841.81;;;20.44;31.53
6528;BME280;64597;42.664;23.256;2023-04-16T12:10:34;93846.69;;;20.42;31.20
6528;BME280;64597;42.664;23.256;2023-04-16T12:13:28;93832.22;;;20.51;32.01
6528;BME280;64597;42.664;23.256;2023-04-16T12:15:56;93830.34;;;20.61;31.58
6528;BME280;64597;42.664;23.256;2023-04-16T12:18:25;93830.97;;;20.58;31.22
6528;BME280;64597;42.664;23.256;2023-04-16T12:20:55;93828.25;;;20.49;31.47
6528;BME280;64597;42.664;23.256;2023-04-16T12:23:30;93828.72;;;20.42;31.80
6528;BME280;64597;42.664;23.256;2023-04-16T12:26:11;93825.75;;;20.44;31.52
6528;BME280;64597;42.664;23.256;2023-04-16T12:28:50;93827.00;;;20.38;31.64
6528;BME280;64597;42.664;23.256;2023-04-16T12:31:36;93823.34;;;20.25;31.97
6528;BME280;64597;42.664;23.256;2023-04-16T12:34:04;93817.53;;;20.23;32.39
6528;BME280;64597;42.664;23.256;2023-04-16T12:36:37;93821.75;;;20.24;32.48
6528;BME280;64597;42.664;23.256;2023-04-16T12:39:07;93821.75;;;20.24;31.99
6528;BME280;64597;42.664;23.256;2023-04-16T12:41:41;93806.75;;;20.15;32.43
6528;BME280;64597;42.664;23.256;2023-04-16T12:44:15;93811.59;;;20.04;32.28
6528;BME280;64597;42.664;23.256;2023-04-16T12:46:48;93819.47;;;20.01;32.25
6528;BME280;64597;42.664;23.256;2023-04-16T12:49:22;93808.25;;;19.90;32.26
6528;BME280;64597;42.664;23.256;2023-04-16T12:51:59;93821.63;;;19.90;32.87
6528;BME280;64597;42.664;23.256;2023-04-16T12:54:29;93821.59;;;19.82;33.35
6528;BME280;64597;42.664;23.256;2023-04-16T12:57:02;93819.72;;;19.82;33.69
6528;BME280;64597;42.664;23.256;2023-04-16T12:59:34;93817.81;;;19.74;33.07
6528;BME280;64597;42.664;23.256;2023-04-16T13:02:03;93822.19;;;19.70;33.65
6528;BME280;64597;42.664;23.256;2023-04-16T13:04:33;93810.59;;;19.44;34.94
6528;BME280;64597;42.664;23.256;2023-04-16T13:07:04;93808.19;;;18.89;35.99
6528;BME280;64597;42.664;23.256;2023-04-16T13:09:33;93797.66;;;18.49;37.80
6528;BME280;64597;42.664;23.256;2023-04-16T13:12:07;93809.91;;;18.36;38.62
6528;BME280;64597;42.664;23.256;2023-04-16T13:14:36;93823.38;;;18.31;39.72
6528;BME280;64597;42.664;23.256;2023-04-16T13:17:05;93817.56;;;18.16;41.76
6528;BME280;64597;42.664;23.256;2023-04-16T13:19:41;93829.94;;;17.98;43.96
6528;BME280;64597;42.664;23.256;2023-04-16T13:22:10;93822.03;;;17.66;46.74
6528;BME280;64597;42.664;23.256;2023-04-16T13:24:42;93809.22;;;17.36;49.07